createdAt,value
2018-05-16T00:00:43.576Z,14.32
2018-05-16T00:03:10.962Z,14.32
2018-05-16T00:05:38.377Z,14.42
2018-05-16T00:08:05.773Z,14.63
2018-05-16T00:10:33.157Z,14.60
2018-05-16T00:13:00.548Z,14.52
2018-05-16T00:15:27.952Z,14.37
2018-05-16T00:17:55.340Z,14.51
2018-05-16T00:20:22.734Z,14.65
2018-05-16T00:22:50.143Z,14.88
2018-05-16T00:25:17.532Z,14.78
2018-05-16T00:27:44.928Z,14.85
2018-05-16T00:30:12.335Z,14.65
2018-05-16T00:32:39.743Z,14.85
2018-05-16T00:35:07.136Z,15.06
2018-05-16T00:37:34.522Z,14.92
2018-05-16T00:40:01.916Z,14.81
2018-05-16T00:42:29.295Z,14.81
2018-05-16T00:44:56.687Z,14.67
2018-05-16T00:47:24.148Z,14.71
2018-05-16T00:49:51.587Z,14.82
2018-05-16T00:52:18.971Z,14.98
2018-05-16T00:54:46.378Z,15.05
2018-05-16T00:57:13.783Z,15.11
2018-05-16T00:59:41.159Z,15.12
2018-05-16T01:02:08.549Z,14.99
2018-05-16T01:04:35.944Z,14.59
2018-05-16T01:07:03.332Z,14.23
2018-05-16T01:09:30.733Z,14.21
2018-05-16T01:11:58.348Z,14.26
2018-05-16T01:14:25.752Z,14.40
2018-05-16T01:16:53.156Z,14.41
2018-05-16T01:19:20.532Z,14.34
2018-05-16T01:21:47.921Z,14.62
2018-05-16T01:24:15.305Z,14.42
2018-05-16T01:26:42.695Z,14.37
2018-05-16T01:29:10.095Z,14.60
2018-05-16T01:31:37.480Z,14.58
2018-05-16T01:34:04.864Z,14.61
2018-05-16T01:36:32.253Z,14.67
2018-05-16T01:38:59.641Z,14.49
2018-05-16T01:41:27.029Z,14.53
2018-05-16T01:43:54.426Z,14.49
2018-05-16T01:46:21.828Z,14.66
2018-05-16T01:49:00.911Z,14.53
2018-05-16T01:51:28.306Z,14.18
2018-05-16T01:53:55.693Z,14.03
2018-05-16T01:56:23.084Z,13.99
2018-05-16T01:58:50.479Z,13.89
2018-05-16T02:01:17.877Z,13.76
2018-05-16T02:03:45.261Z,13.75
2018-05-16T02:06:12.675Z,13.83
2018-05-16T02:08:40.073Z,14.10
2018-05-16T02:11:07.470Z,14.03
2018-05-16T02:13:34.877Z,14.25
2018-05-16T02:16:02.290Z,14.19
2018-05-16T02:18:29.668Z,14.13
2018-05-16T02:20:57.096Z,14.13
2018-05-16T02:23:24.497Z,13.99
2018-05-16T02:25:51.891Z,13.88
2018-05-16T02:28:19.301Z,13.94
2018-05-16T02:30:46.830Z,14.13
2018-05-16T02:33:14.232Z,13.98
2018-05-16T02:35:41.624Z,13.83
2018-05-16T02:38:09.015Z,13.87
2018-05-16T02:40:36.410Z,13.81
2018-05-16T02:43:03.815Z,13.82
2018-05-16T02:45:31.209Z,13.88
2018-05-16T02:47:58.609Z,13.72
2018-05-16T02:50:26.007Z,13.75
2018-05-16T02:52:53.420Z,13.79
2018-05-16T02:55:20.830Z,13.78
2018-05-16T02:57:48.203Z,13.91
2018-05-16T03:00:15.592Z,13.84
2018-05-16T03:02:42.989Z,13.90
2018-05-16T03:05:10.384Z,13.80
2018-05-16T03:07:37.768Z,13.73
2018-05-16T03:10:05.166Z,13.64
2018-05-16T03:12:32.544Z,13.62
2018-05-16T03:14:59.932Z,13.65
2018-05-16T03:17:27.316Z,13.68
2018-05-16T03:19:54.699Z,13.68
2018-05-16T03:22:22.088Z,13.72
2018-05-16T03:24:49.473Z,13.71
2018-05-16T03:27:16.865Z,13.85
2018-05-16T03:29:44.243Z,13.80
2018-05-16T03:32:11.672Z,13.97
2018-05-16T03:34:39.075Z,14.18
2018-05-16T03:37:06.480Z,14.14
2018-05-16T03:39:33.868Z,14.23
2018-05-16T03:42:01.281Z,14.10
2018-05-16T03:44:28.690Z,14.14
2018-05-16T03:46:56.073Z,14.21
2018-05-16T03:49:23.460Z,14.14
2018-05-16T03:51:50.860Z,14.05
2018-05-16T03:54:18.225Z,13.97
2018-05-16T03:56:45.623Z,13.96
2018-05-16T03:59:24.715Z,13.98
2018-05-16T04:02:03.820Z,14.08
2018-05-16T04:04:31.199Z,14.04
2018-05-16T04:06:58.592Z,14.01
2018-05-16T04:09:25.972Z,14.23
2018-05-16T04:11:53.364Z,14.31
2018-05-16T04:14:20.771Z,14.45
2018-05-16T04:16:48.156Z,14.25
2018-05-16T04:19:15.548Z,14.12
2018-05-16T04:21:42.976Z,14.33
2018-05-16T04:24:10.383Z,14.42
2018-05-16T04:26:37.767Z,14.56
2018-05-16T04:29:05.187Z,14.68
2018-05-16T04:31:32.556Z,14.75
2018-05-16T04:33:59.935Z,14.89
2018-05-16T04:36:27.329Z,14.88
2018-05-16T04:38:54.764Z,14.81
2018-05-16T04:41:22.132Z,14.78
2018-05-16T04:43:49.516Z,14.84
2018-05-16T04:46:16.904Z,14.84
2018-05-16T04:48:44.279Z,14.75
2018-05-16T04:51:11.679Z,14.80
2018-05-16T04:53:39.055Z,14.80
2018-05-16T04:56:06.448Z,14.73
2018-05-16T04:58:33.953Z,14.74
2018-05-16T05:01:01.375Z,14.64
2018-05-16T05:03:28.722Z,14.71
2018-05-16T05:05:56.107Z,14.68
2018-05-16T05:08:23.573Z,14.85
2018-05-16T05:10:50.951Z,14.87
2018-05-16T05:13:18.423Z,14.85
2018-05-16T05:15:45.824Z,14.86
2018-05-16T05:18:13.271Z,14.83
2018-05-16T05:20:40.576Z,14.76
2018-05-16T05:23:07.959Z,14.81
2018-05-16T05:25:35.336Z,14.86
2018-05-16T05:28:02.726Z,14.90
2018-05-16T05:30:30.109Z,14.91
2018-05-16T05:32:57.495Z,14.94
2018-05-16T05:35:24.871Z,14.90
2018-05-16T05:37:52.296Z,14.85
2018-05-16T05:40:19.721Z,14.98
2018-05-16T05:42:47.110Z,14.98
2018-05-16T05:45:14.488Z,14.98
2018-05-16T05:47:41.880Z,14.98
2018-05-16T05:50:09.255Z,14.98
2018-05-16T05:52:36.640Z,14.98
2018-05-16T05:55:04.107Z,15.00
2018-05-16T05:57:31.519Z,15.07
2018-05-16T05:59:59.152Z,15.11
2018-05-16T06:02:26.570Z,15.16
2018-05-16T06:04:53.962Z,15.20
2018-05-16T06:07:21.344Z,15.28
2018-05-16T06:09:48.745Z,15.20
2018-05-16T06:12:16.118Z,15.34
2018-05-16T06:14:43.530Z,15.38
2018-05-16T06:17:10.895Z,15.41
2018-05-16T06:19:38.330Z,15.51
2018-05-16T06:22:05.721Z,15.51
2018-05-16T06:24:33.120Z,15.62
2018-05-16T06:27:00.603Z,15.79
2018-05-16T06:29:27.893Z,15.87
2018-05-16T06:31:55.279Z,15.86
2018-05-16T06:34:22.671Z,16.01
2018-05-16T06:36:50.044Z,15.95
2018-05-16T06:39:17.512Z,15.90
2018-05-16T06:41:44.816Z,16.05
2018-05-16T06:44:12.200Z,16.07
2018-05-16T06:46:39.580Z,15.99
2018-05-16T06:49:06.974Z,16.14
2018-05-16T06:51:34.353Z,16.29
2018-05-16T06:54:01.740Z,16.50
2018-05-16T06:56:29.129Z,16.57
2018-05-16T06:58:56.513Z,16.68
2018-05-16T07:01:23.893Z,16.69
2018-05-16T07:03:51.324Z,16.73
2018-05-16T07:06:18.695Z,16.77
2018-05-16T07:08:46.088Z,16.57
2018-05-16T07:11:13.463Z,16.52
2018-05-16T07:13:40.839Z,16.62
2018-05-16T07:16:08.228Z,16.82
2018-05-16T07:18:35.606Z,16.92
2018-05-16T07:21:03.005Z,16.97
2018-05-16T07:23:30.399Z,17.09
2018-05-16T07:25:57.919Z,17.19
2018-05-16T07:28:25.304Z,17.11
2018-05-16T07:30:52.705Z,17.43
2018-05-16T07:33:20.098Z,17.30
2018-05-16T07:35:47.484Z,17.19
2018-05-16T07:38:14.863Z,17.18
2018-05-16T07:40:42.255Z,17.23
2018-05-16T07:43:09.636Z,17.16
2018-05-16T07:45:37.025Z,17.07
2018-05-16T07:48:04.405Z,17.27
2018-05-16T07:50:31.796Z,17.39
2018-05-16T07:52:59.176Z,17.42
2018-05-16T07:55:26.568Z,17.42
2018-05-16T07:57:53.951Z,17.51
2018-05-16T08:00:21.348Z,17.53
2018-05-16T08:02:49.361Z,17.46
2018-05-16T08:05:16.737Z,17.32
2018-05-16T08:07:44.120Z,17.29
2018-05-16T08:10:11.503Z,17.42
2018-05-16T08:12:38.901Z,17.68
2018-05-16T08:15:06.318Z,17.92
2018-05-16T08:17:33.756Z,17.91
2018-05-16T08:20:01.139Z,18.03
2018-05-16T08:22:28.536Z,18.09
2018-05-16T08:24:55.917Z,17.99
2018-05-16T08:27:23.312Z,18.03
2018-05-16T08:29:50.685Z,17.99
2018-05-16T08:32:18.088Z,18.00
2018-05-16T08:34:45.472Z,18.09
2018-05-16T08:37:12.992Z,18.30
2018-05-16T08:39:40.396Z,18.36
2018-05-16T08:42:07.803Z,18.55
2018-05-16T08:44:35.176Z,18.58
2018-05-16T08:47:02.605Z,18.46
2018-05-16T08:49:30.022Z,18.49
2018-05-16T08:51:57.451Z,18.67
2018-05-16T08:54:24.854Z,18.66
2018-05-16T08:56:52.276Z,18.68
2018-05-16T08:59:19.864Z,18.75
2018-05-16T09:01:47.358Z,18.63
2018-05-16T09:04:14.721Z,18.66
2018-05-16T09:06:42.142Z,18.70
2018-05-16T09:09:09.556Z,18.81
2018-05-16T09:11:36.976Z,19.01
2018-05-16T09:14:04.399Z,19.06
2018-05-16T09:16:31.813Z,18.86
2018-05-16T09:18:59.233Z,18.82
2018-05-16T09:21:26.652Z,19.08
2018-05-16T09:23:54.073Z,19.19
2018-05-16T09:26:21.488Z,19.44
2018-05-16T09:28:48.915Z,19.45
2018-05-16T09:31:16.333Z,19.39
2018-05-16T09:33:43.753Z,19.40
2018-05-16T09:36:11.174Z,19.52
2018-05-16T09:38:38.594Z,19.58
2018-05-16T09:41:06.019Z,19.53
2018-05-16T09:43:33.441Z,19.67
2018-05-16T09:46:00.875Z,19.82
2018-05-16T09:48:28.284Z,19.96
2018-05-16T09:50:55.707Z,20.18
2018-05-16T09:53:23.128Z,20.27
2018-05-16T09:55:50.541Z,20.20
2018-05-16T09:58:17.956Z,20.05
2018-05-16T10:00:45.376Z,20.01
2018-05-16T10:03:12.796Z,19.79
2018-05-16T10:05:40.204Z,19.55
2018-05-16T10:08:07.631Z,19.37
2018-05-16T10:10:35.038Z,19.17
2018-05-16T10:13:02.451Z,19.16
2018-05-16T10:15:29.877Z,19.16
2018-05-16T10:17:57.289Z,19.12
2018-05-16T10:20:25.061Z,18.98
2018-05-16T10:22:52.492Z,18.99
2018-05-16T10:25:19.913Z,19.11
2018-05-16T10:27:47.320Z,19.25
2018-05-16T10:30:14.724Z,19.31
2018-05-16T10:32:42.141Z,19.44
2018-05-16T10:35:10.176Z,19.58
2018-05-16T10:37:38.139Z,19.68
2018-05-16T10:40:05.572Z,19.63
2018-05-16T10:42:33.581Z,19.72
2018-05-16T10:45:01.637Z,19.77
2018-05-16T10:47:30.530Z,19.78
2018-05-16T10:49:57.958Z,19.76
2018-05-16T10:52:25.370Z,19.80
2018-05-16T10:54:52.762Z,19.83
2018-05-16T10:57:20.219Z,20.10
2018-05-16T10:59:47.520Z,20.35
2018-05-16T11:02:14.903Z,20.46
2018-05-16T11:04:42.353Z,20.37
2018-05-16T11:07:09.681Z,20.26
2018-05-16T11:09:37.109Z,20.40
2018-05-16T11:12:04.511Z,20.48
2018-05-16T11:14:31.913Z,20.70
2018-05-16T11:16:59.336Z,20.74
2018-05-16T11:19:26.735Z,20.92
2018-05-16T11:21:55.051Z,20.84
2018-05-16T11:24:23.122Z,20.82
2018-05-16T11:26:50.516Z,20.83
2018-05-16T11:29:18.399Z,20.81
2018-05-16T11:31:46.830Z,20.57
2018-05-16T11:34:14.284Z,20.42
2018-05-16T11:36:41.693Z,20.41
2018-05-16T11:39:09.131Z,20.46
2018-05-16T11:41:36.604Z,20.55
2018-05-16T11:44:04.006Z,20.75
2018-05-16T11:46:31.421Z,20.86
2018-05-16T11:48:58.809Z,20.92
2018-05-16T11:51:26.212Z,20.92
2018-05-16T11:53:53.639Z,21.14
2018-05-16T11:56:21.062Z,21.25
2018-05-16T11:58:48.473Z,21.34
2018-05-16T12:01:16.796Z,21.25
2018-05-16T12:03:44.370Z,21.13
2018-05-16T12:06:13.421Z,21.04
2018-05-16T12:08:40.889Z,21.02
2018-05-16T12:11:08.317Z,21.00
2018-05-16T12:13:35.708Z,21.01
2018-05-16T12:16:03.295Z,21.21
2018-05-16T12:18:30.731Z,21.36
2018-05-16T12:20:58.118Z,21.42
2018-05-16T12:23:25.533Z,21.61
2018-05-16T12:25:52.907Z,21.73
2018-05-16T12:28:20.717Z,21.86
2018-05-16T12:30:48.110Z,21.77
2018-05-16T12:33:15.541Z,21.96
2018-05-16T12:35:42.931Z,22.07
2018-05-16T12:38:10.339Z,22.15
2018-05-16T12:40:37.709Z,21.89
2018-05-16T12:43:17.604Z,21.69
2018-05-16T12:45:49.102Z,21.64
2018-05-16T12:48:17.355Z,21.57
2018-05-16T12:50:45.017Z,21.46
2018-05-16T12:53:13.880Z,21.25
2018-05-16T12:55:44.637Z,21.18
2018-05-16T12:58:14.501Z,21.31
2018-05-16T13:00:42.052Z,21.41
2018-05-16T13:03:09.425Z,21.40
2018-05-16T13:05:36.822Z,21.49
2018-05-16T13:08:05.058Z,21.59
2018-05-16T13:10:32.417Z,21.63
2018-05-16T13:12:59.852Z,21.79
2018-05-16T13:15:27.194Z,21.80
2018-05-16T13:17:54.703Z,21.84
2018-05-16T13:20:22.015Z,22.19
2018-05-16T13:22:49.463Z,22.14
2018-05-16T13:25:16.848Z,22.23
2018-05-16T13:27:44.233Z,22.24
2018-05-16T13:30:11.680Z,22.31
2018-05-16T13:32:39.075Z,22.22
2018-05-16T13:35:06.480Z,22.41
2018-05-16T13:37:33.853Z,22.37
2018-05-16T13:40:01.264Z,22.30
2018-05-16T13:42:28.636Z,22.39
2018-05-16T13:44:56.030Z,22.36
2018-05-16T13:47:24.101Z,22.29
2018-05-16T13:49:51.560Z,22.35
2018-05-16T13:52:18.944Z,22.48
2018-05-16T13:54:46.336Z,22.59
2018-05-16T13:57:13.722Z,22.82
2018-05-16T13:59:41.116Z,22.93
2018-05-16T14:02:08.512Z,23.09
2018-05-16T14:04:35.899Z,23.11
2018-05-16T14:07:03.301Z,22.99
2018-05-16T14:09:30.717Z,22.84
2018-05-16T14:11:58.090Z,22.75
2018-05-16T14:14:25.481Z,22.66
2018-05-16T14:16:52.859Z,22.20
2018-05-16T14:19:20.466Z,21.85
2018-05-16T14:21:47.824Z,21.61
2018-05-16T14:24:15.257Z,21.29
2018-05-16T14:26:42.640Z,21.14
2018-05-16T14:29:10.016Z,20.95
2018-05-16T14:31:37.399Z,20.92
2018-05-16T14:34:04.779Z,20.73
2018-05-16T14:36:32.172Z,20.72
2018-05-16T14:38:59.581Z,20.56
2018-05-16T14:41:26.968Z,20.30
2018-05-16T14:43:54.368Z,20.26
2018-05-16T14:46:21.756Z,20.44
2018-05-16T14:48:49.147Z,20.41
2018-05-16T14:54:12.913Z,20.26
2018-05-16T15:04:49.903Z,19.90
2018-05-16T15:07:35.654Z,19.80
2018-05-16T15:10:22.984Z,19.71
2018-05-16T15:30:43.662Z,19.90
2018-05-16T15:33:12.183Z,20.08
2018-05-16T15:35:39.564Z,20.26
2018-05-16T15:38:06.969Z,20.31
2018-05-16T15:40:35.286Z,20.35
2018-05-16T15:43:02.687Z,20.46
2018-05-16T15:45:30.284Z,20.47
2018-05-16T15:47:58.484Z,20.47
2018-05-16T15:50:27.196Z,20.57
2018-05-16T15:52:54.642Z,20.62
2018-05-16T15:55:22.106Z,20.75
2018-05-16T15:57:49.525Z,21.03
2018-05-16T16:00:16.974Z,21.18
2018-05-16T16:02:44.382Z,21.17
2018-05-16T16:05:11.856Z,21.12
2018-05-16T16:07:39.293Z,21.05
2018-05-16T16:10:06.697Z,20.95
2018-05-16T16:12:34.144Z,20.99
2018-05-16T16:15:01.652Z,21.26
2018-05-16T16:17:48.586Z,21.28
2018-05-16T16:20:20.750Z,21.33
2018-05-16T16:22:53.918Z,21.44
2018-05-16T16:36:11.402Z,21.40
2018-05-16T16:38:40.233Z,21.43
2018-05-16T16:41:25.811Z,21.43
2018-05-16T16:44:04.090Z,21.47
2018-05-16T16:46:38.172Z,21.24
2018-05-16T16:49:13.024Z,21.20
2018-05-16T17:03:07.328Z,21.47
2018-05-16T17:12:31.323Z,21.62
2018-05-16T17:15:05.447Z,22.07
2018-05-16T17:17:33.747Z,22.41
2018-05-16T17:52:49.389Z,20.47
2018-05-16T17:55:17.635Z,20.46
2018-05-16T17:57:46.910Z,20.40
2018-05-16T18:00:15.102Z,20.18
2018-05-16T18:02:42.711Z,20.13
2018-05-16T18:05:14.915Z,20.26
2018-05-16T18:07:43.323Z,20.19
2018-05-16T18:10:11.170Z,20.18
2018-05-16T18:12:38.656Z,20.07
2018-05-16T18:15:18.677Z,20.02
2018-05-16T18:17:46.071Z,19.99
2018-05-16T18:20:14.062Z,19.81
2018-05-16T18:22:45.359Z,19.88
2018-05-16T18:25:15.294Z,19.94
2018-05-16T18:27:44.922Z,19.91
2018-05-16T18:30:13.647Z,19.93
2018-05-16T18:32:41.313Z,19.87
2018-05-16T18:35:11.175Z,19.87
2018-05-16T18:37:40.153Z,19.67
2018-05-16T18:40:07.708Z,19.63
2018-05-16T18:42:37.720Z,19.64
2018-05-16T18:45:06.002Z,19.46
2018-05-16T18:47:33.491Z,19.41
2018-05-16T18:53:03.548Z,19.07
2018-05-16T18:55:33.881Z,19.03
2018-05-16T18:58:04.910Z,19.06
2018-05-16T19:00:32.399Z,19.03
2018-05-16T19:03:03.383Z,18.68
2018-05-16T19:05:32.459Z,18.93
2018-05-16T19:08:01.147Z,19.02
2018-05-16T19:10:29.567Z,18.80
2018-05-16T19:12:58.833Z,18.47
2018-05-16T19:15:27.830Z,18.34
2018-05-16T19:18:03.154Z,18.25
2018-05-16T19:23:10.204Z,18.27
2018-05-16T19:25:37.675Z,18.25
2018-05-16T19:28:08.547Z,18.17
2018-05-16T19:30:37.325Z,18.23
2018-05-16T19:33:07.901Z,18.34
2018-05-16T19:35:46.099Z,18.16
2018-05-16T19:38:13.793Z,17.93
2018-05-16T19:40:42.366Z,17.87
2018-05-16T19:43:12.977Z,17.86
2018-05-16T19:45:42.245Z,17.90
2018-05-16T19:48:09.678Z,17.83
2018-05-16T19:50:37.886Z,17.90
2018-05-16T19:53:06.406Z,17.91
2018-05-16T19:55:33.875Z,17.94
2018-05-16T19:58:02.649Z,17.82
2018-05-16T20:00:32.774Z,17.68
2018-05-16T20:03:02.676Z,17.66
2018-05-16T20:05:30.822Z,17.48
2018-05-16T20:08:00.800Z,17.47
2018-05-16T20:10:28.561Z,17.34
2018-05-16T20:12:56.840Z,17.28
2018-05-16T20:15:25.624Z,17.25
2018-05-16T20:17:53.460Z,17.28
2018-05-16T20:20:22.942Z,17.19
2018-05-16T20:22:52.293Z,17.09
2018-05-16T20:25:20.771Z,17.06
2018-05-16T20:27:51.659Z,16.91
2018-05-16T20:30:20.153Z,16.74
2018-05-16T20:32:50.981Z,16.66
2018-05-16T20:35:19.767Z,16.64
2018-05-16T20:37:48.811Z,16.58
2018-05-16T20:40:16.236Z,16.45
2018-05-16T20:42:45.233Z,16.54
2018-05-16T20:45:12.652Z,16.51
2018-05-16T20:47:40.051Z,16.62
2018-05-16T20:50:09.781Z,16.66
2018-05-16T20:52:40.057Z,16.67
2018-05-16T20:55:07.509Z,16.72
2018-05-16T20:57:36.754Z,16.91
2018-05-16T21:00:04.620Z,17.06
2018-05-16T21:02:32.706Z,17.02
2018-05-16T21:05:00.124Z,17.03
2018-05-16T21:10:05.843Z,17.07
2018-05-16T21:12:34.345Z,17.19
2018-05-16T21:15:03.344Z,17.29
2018-05-16T21:17:33.703Z,17.14
2018-05-16T21:20:01.869Z,17.09
2018-05-16T21:22:33.187Z,17.09
2018-05-16T21:25:04.389Z,17.05
2018-05-16T21:27:34.999Z,17.05
2018-05-16T21:30:02.516Z,17.11
2018-05-16T21:32:31.257Z,17.36
2018-05-16T21:35:01.738Z,17.36
2018-05-16T21:37:29.571Z,17.32
2018-05-16T21:39:58.022Z,17.24
2018-05-16T21:42:26.264Z,17.18
2018-05-16T21:44:53.749Z,17.17
2018-05-16T21:47:22.077Z,17.12
2018-05-16T21:49:51.905Z,17.15
2018-05-16T21:52:20.382Z,17.18
2018-05-16T21:54:47.988Z,17.40
2018-05-16T21:57:16.168Z,17.53
2018-05-16T21:59:43.581Z,17.63
2018-05-16T22:02:13.821Z,17.79
2018-05-16T22:04:44.314Z,17.67
2018-05-16T22:07:12.285Z,17.73
2018-05-16T22:09:43.828Z,17.77
2018-05-16T22:12:12.390Z,17.70
2018-05-16T22:14:41.618Z,17.61
2018-05-16T22:17:09.573Z,17.34
2018-05-16T22:19:39.817Z,17.41
2018-05-16T22:22:09.069Z,17.40
2018-05-16T22:24:37.305Z,17.47
2018-05-16T22:27:10.176Z,17.40
2018-05-16T22:29:37.625Z,17.36
2018-05-16T22:32:10.670Z,17.25
2018-05-16T22:34:46.244Z,17.19
2018-05-16T22:37:20.043Z,17.01
2018-05-16T22:39:56.133Z,16.62
2018-05-16T22:42:29.260Z,16.53
2018-05-16T22:45:03.693Z,16.22
2018-05-16T22:47:32.739Z,16.11
2018-05-16T22:50:00.229Z,16.10
2018-05-16T22:52:30.269Z,15.97
2018-05-16T22:54:58.209Z,15.98
2018-05-16T22:57:26.202Z,15.95
2018-05-16T22:59:54.018Z,16.04
2018-05-16T23:02:36.259Z,16.00
2018-05-16T23:05:06.034Z,15.79
2018-05-16T23:07:40.802Z,15.77
2018-05-16T23:10:09.167Z,15.77
2018-05-16T23:12:37.428Z,15.77
2018-05-16T23:15:04.800Z,16.19
2018-05-16T23:17:32.179Z,16.09
2018-05-16T23:19:59.563Z,16.11
2018-05-16T23:22:26.943Z,16.27
2018-05-16T23:24:54.334Z,16.54
2018-05-16T23:27:21.719Z,16.57
2018-05-16T23:29:49.116Z,16.36
2018-05-16T23:32:16.521Z,16.13
2018-05-16T23:34:43.923Z,15.75
2018-05-16T23:37:11.325Z,15.73
2018-05-16T23:39:38.729Z,15.85
2018-05-16T23:42:06.128Z,15.80
2018-05-16T23:44:33.511Z,15.74
2018-05-16T23:47:00.903Z,15.72
2018-05-16T23:49:28.296Z,15.73
2018-05-16T23:51:55.720Z,16.02
2018-05-16T23:54:23.113Z,15.74
2018-05-16T23:56:50.498Z,15.74
2018-05-16T23:59:17.908Z,15.77
